sensor_id;sensor_type;location;lat;lon;timestamp;pressure;altitude;pressure_sealevel;temperature;humidity
3598;BME280;1813;52.016;8.714;2023-02-05T00:00:06;-16261.94;;;-139.71;63.27
3598;BME280;1813;52.016;8.714;2023-02-05T00:02:40;-16261.94;;;-139.71;63.45
3598;BME280;1813;52.016;8.714;2023-02-05T00:05:14;-16261.94;;;-139.71;63.40
3598;BME280;1813;52.016;8.714;2023-02-05T00:07:51;-16261.94;;;-139.71;63.28
3598;BME280;1813;52.016;8.714;2023-02-05T00:10:25;-16261.94;;;-139.71;63.00
3598;BME280;1813;52.016;8.714;2023-02-05T00:12:59;-16261.94;;;-139.71;62.87
3598;BME280;1813;52.016;8.714;2023-02-05T00:15:32;-16261.94;;;-139.71;63.05
3598;BME280;1813;52.016;8.714;2023-02-05T00:18:06;-16261.94;;;-139.71;63.20
3598;BME280;1813;52.016;8.714;2023-02-05T00:20:40;-16261.94;;;-139.71;63.40
3598;BME280;1813;52.016;8.714;2023-02-05T00:23:16;-16261.94;;;-139.71;63.74
3598;BME280;1813;52.016;8.714;2023-02-05T00:25:50;-16261.94;;;-139.71;63.88
3598;BME280;1813;52.016;8.714;2023-02-05T00:28:24;-16261.94;;;-139.71;64.17
3598;BME280;1813;52.016;8.714;2023-02-05T00:30:58;-16261.94;;;-139.71;64.37
3598;BME280;1813;52.016;8.714;2023-02-05T00:33:32;-16261.94;;;-139.71;64.52
3598;BME280;1813;52.016;8.714;2023-02-05T00:36:07;-16261.94;;;-139.71;64.72
3598;BME280;1813;52.016;8.714;2023-02-05T00:38:45;-16261.94;;;-139.71;64.74
3598;BME280;1813;52.016;8.714;2023-02-05T00:41:18;-16261.94;;;-139.71;64.84
3598;BME280;1813;52.016;8.714;2023-02-05T00:43:52;-16261.94;;;-139.71;64.95
3598;BME280;1813;52.016;8.714;2023-02-05T00:46:26;-16261.94;;;-139.71;64.91
3598;BME280;1813;52.016;8.714;2023-02-05T00:49:01;-16261.94;;;-139.71;64.71
3598;BME280;1813;52.016;8.714;2023-02-05T00:51:34;-16261.94;;;-139.71;64.66
3598;BME280;1813;52.016;8.714;2023-02-05T00:54:10;-16261.94;;;-139.71;64.27
3598;BME280;1813;52.016;8.714;2023-02-05T00:56:44;-16261.94;;;-139.71;64.15
3598;BME280;1813;52.016;8.714;2023-02-05T00:59:18;-16261.94;;;-139.71;64.01
3598;BME280;1813;52.016;8.714;2023-02-05T01:01:53;-16261.94;;;-139.71;64.38
3598;BME280;1813;52.016;8.714;2023-02-05T01:04:26;-16261.94;;;-139.71;64.23
3598;BME280;1813;52.016;8.714;2023-02-05T01:07:00;-16261.94;;;-139.71;64.26
3598;BME280;1813;52.016;8.714;2023-02-05T01:09:37;-16261.94;;;-139.71;64.38
3598;BME280;1813;52.016;8.714;2023-02-05T01:12:11;-16261.94;;;-139.71;64.38
3598;BME280;1813;52.016;8.714;2023-02-05T01:14:46;-16261.94;;;-139.71;64.65
3598;BME280;1813;52.016;8.714;2023-02-05T01:17:20;-16261.94;;;-139.71;64.82
3598;BME280;1813;52.016;8.714;2023-02-05T01:19:54;-16261.94;;;-139.71;65.00
3598;BME280;1813;52.016;8.714;2023-02-05T01:22:28;-16261.94;;;-139.71;65.23
3598;BME280;1813;52.016;8.714;2023-02-05T01:25:05;-16261.94;;;-139.71;65.16
3598;BME280;1813;52.016;8.714;2023-02-05T01:27:40;-16261.94;;;-139.71;65.30
3598;BME280;1813;52.016;8.714;2023-02-05T01:30:14;-16261.94;;;-139.71;65.04
3598;BME280;1813;52.016;8.714;2023-02-05T01:32:48;-16261.94;;;-139.71;64.96
3598;BME280;1813;52.016;8.714;2023-02-05T01:35:25;-16261.94;;;-139.71;64.95
3598;BME280;1813;52.016;8.714;2023-02-05T01:37:59;-16261.94;;;-139.71;64.76
3598;BME280;1813;52.016;8.714;2023-02-05T01:40:35;-16261.94;;;-139.71;64.87
3598;BME280;1813;52.016;8.714;2023-02-05T01:43:11;-16261.94;;;-139.71;64.77
3598;BME280;1813;52.016;8.714;2023-02-05T01:46:04;-16261.94;;;-139.71;64.96
3598;BME280;1813;52.016;8.714;2023-02-05T01:48:41;-16261.94;;;-139.71;65.14
3598;BME280;1813;52.016;8.714;2023-02-05T01:51:15;-16261.94;;;-139.71;65.38
3598;BME280;1813;52.016;8.714;2023-02-05T01:53:50;-16261.94;;;-139.71;65.44
3598;BME280;1813;52.016;8.714;2023-02-05T01:56:30;-16261.94;;;-139.71;65.59
3598;BME280;1813;52.016;8.714;2023-02-05T01:59:09;-16261.94;;;-139.71;65.71
3598;BME280;1813;52.016;8.714;2023-02-05T02:01:44;-16261.94;;;-139.71;65.93
3598;BME280;1813;52.016;8.714;2023-02-05T02:04:29;-16261.94;;;-139.71;66.15
3598;BME280;1813;52.016;8.714;2023-02-05T02:07:06;-16261.94;;;-139.71;66.44
3598;BME280;1813;52.016;8.714;2023-02-05T02:09:42;-16261.94;;;-139.71;66.60
3598;BME280;1813;52.016;8.714;2023-02-05T02:12:21;-16261.94;;;-139.71;66.45
3598;BME280;1813;52.016;8.714;2023-02-05T02:14:59;-16261.94;;;-139.71;66.60
3598;BME280;1813;52.016;8.714;2023-02-05T02:17:36;-16261.94;;;-139.71;66.75
3598;BME280;1813;52.016;8.714;2023-02-05T02:20:13;-16261.94;;;-139.71;66.93
3598;BME280;1813;52.016;8.714;2023-02-05T02:23:09;-16261.94;;;-139.71;66.99
3598;BME280;1813;52.016;8.714;2023-02-05T02:28:58;-16261.94;;;-139.71;67.48
3598;BME280;1813;52.016;8.714;2023-02-05T02:31:39;-16261.94;;;-139.71;67.88
3598;BME280;1813;52.016;8.714;2023-02-05T02:34:17;-16261.94;;;-139.71;68.31
3598;BME280;1813;52.016;8.714;2023-02-05T02:36:57;-16261.94;;;-139.71;68.53
3598;BME280;1813;52.016;8.714;2023-02-05T02:39:39;-16261.94;;;-139.71;68.86
3598;BME280;1813;52.016;8.714;2023-02-05T02:42:15;-16261.94;;;-139.71;69.06
3598;BME280;1813;52.016;8.714;2023-02-05T02:44:58;-16261.94;;;-139.71;69.25
3598;BME280;1813;52.016;8.714;2023-02-05T02:47:36;-16261.94;;;-139.71;69.07
3598;BME280;1813;52.016;8.714;2023-02-05T02:50:13;-16261.94;;;-139.71;69.05
3598;BME280;1813;52.016;8.714;2023-02-05T02:52:51;-16261.94;;;-139.71;69.07
3598;BME280;1813;52.016;8.714;2023-02-05T02:55:27;-16261.94;;;-139.71;69.05
3598;BME280;1813;52.016;8.714;2023-02-05T02:58:06;-16261.94;;;-139.71;69.19
3598;BME280;1813;52.016;8.714;2023-02-05T03:00:45;-16261.94;;;-139.71;69.26
3598;BME280;1813;52.016;8.714;2023-02-05T03:03:23;-16261.94;;;-139.71;69.24
3598;BME280;1813;52.016;8.714;2023-02-05T03:05:59;-16261.94;;;-139.71;69.27
3598;BME280;1813;52.016;8.714;2023-02-05T03:08:43;-16261.94;;;-139.71;69.50
3598;BME280;1813;52.016;8.714;2023-02-05T03:11:18;-16261.94;;;-139.71;69.65
3598;BME280;1813;52.016;8.714;2023-02-05T03:13:56;-16261.94;;;-139.71;69.74
3598;BME280;1813;52.016;8.714;2023-02-05T03:16:38;-16261.94;;;-139.71;69.79
3598;BME280;1813;52.016;8.714;2023-02-05T03:19:12;-16261.94;;;-139.71;69.75
3598;BME280;1813;52.016;8.714;2023-02-05T03:21:47;-16261.94;;;-139.71;69.46
3598;BME280;1813;52.016;8.714;2023-02-05T03:24:23;-16261.94;;;-139.71;69.07
3598;BME280;1813;52.016;8.714;2023-02-05T03:26:57;-16261.94;;;-139.71;68.96
3598;BME280;1813;52.016;8.714;2023-02-05T03:29:33;-16261.94;;;-139.71;68.91
3598;BME280;1813;52.016;8.714;2023-02-05T03:32:26;-16261.94;;;-139.71;68.99
3598;BME280;1813;52.016;8.714;2023-02-05T03:35:13;-16261.94;;;-139.71;69.28
3598;BME280;1813;52.016;8.714;2023-02-05T03:38:13;-16261.94;;;-139.71;69.37
3598;BME280;1813;52.016;8.714;2023-02-05T03:40:56;-16261.94;;;-139.71;69.27
3598;BME280;1813;52.016;8.714;2023-02-05T03:43:35;-16261.94;;;-139.71;69.28
3598;BME280;1813;52.016;8.714;2023-02-05T03:46:19;-16261.94;;;-139.71;69.28
3598;BME280;1813;52.016;8.714;2023-02-05T03:49:09;-16261.94;;;-139.71;69.40
3598;BME280;1813;52.016;8.714;2023-02-05T03:51:52;-16261.94;;;-139.71;69.79
3598;BME280;1813;52.016;8.714;2023-02-05T03:54:35;-16261.94;;;-139.71;70.21
3598;BME280;1813;52.016;8.714;2023-02-05T03:57:20;-16261.94;;;-139.71;70.43
3598;BME280;1813;52.016;8.714;2023-02-05T03:59:56;-16261.94;;;-139.71;70.67
3598;BME280;1813;52.016;8.714;2023-02-05T04:02:32;-16261.94;;;-139.71;71.02
3598;BME280;1813;52.016;8.714;2023-02-05T04:05:09;-16261.94;;;-139.71;71.07
3598;BME280;1813;52.016;8.714;2023-02-05T04:07:45;-16261.94;;;-139.71;71.17
3598;BME280;1813;52.016;8.714;2023-02-05T04:10:19;-16261.94;;;-139.71;71.13
3598;BME280;1813;52.016;8.714;2023-02-05T04:12:53;-16261.94;;;-139.71;71.29
3598;BME280;1813;52.016;8.714;2023-02-05T04:15:27;-16261.94;;;-139.71;71.19
3598;BME280;1813;52.016;8.714;2023-02-05T04:18:03;-16261.94;;;-139.71;71.43
3598;BME280;1813;52.016;8.714;2023-02-05T04:20:40;-16261.94;;;-139.71;71.20
3598;BME280;1813;52.016;8.714;2023-02-05T04:23:15;-16261.94;;;-139.71;70.92
3598;BME280;1813;52.016;8.714;2023-02-05T04:25:51;-16261.94;;;-139.71;70.91
3598;BME280;1813;52.016;8.714;2023-02-05T04:28:30;-16261.94;;;-139.71;70.95
3598;BME280;1813;52.016;8.714;2023-02-05T04:31:07;-16261.94;;;-139.71;70.93
3598;BME280;1813;52.016;8.714;2023-02-05T04:33:43;-16261.94;;;-139.71;71.14
3598;BME280;1813;52.016;8.714;2023-02-05T04:36:21;-16261.94;;;-139.71;71.39
3598;BME280;1813;52.016;8.714;2023-02-05T04:38:55;-16261.94;;;-139.71;71.70
3598;BME280;1813;52.016;8.714;2023-02-05T04:41:29;-16261.94;;;-139.71;72.07
3598;BME280;1813;52.016;8.714;2023-02-05T04:44:03;-16261.94;;;-139.71;72.23
3598;BME280;1813;52.016;8.714;2023-02-05T04:46:36;-16261.94;;;-139.71;72.37
3598;BME280;1813;52.016;8.714;2023-02-05T04:49:10;-16261.94;;;-139.71;72.57
3598;BME280;1813;52.016;8.714;2023-02-05T04:51:47;-16261.94;;;-139.71;72.81
3598;BME280;1813;52.016;8.714;2023-02-05T04:54:20;-16261.94;;;-139.71;73.05
3598;BME280;1813;52.016;8.714;2023-02-05T04:56:54;-16261.94;;;-139.71;73.22
3598;BME280;1813;52.016;8.714;2023-02-05T04:59:28;-16261.94;;;-139.71;73.34
3598;BME280;1813;52.016;8.714;2023-02-05T05:02:03;-16261.94;;;-139.71;73.34
3598;BME280;1813;52.016;8.714;2023-02-05T05:04:37;-16261.94;;;-139.71;73.53
3598;BME280;1813;52.016;8.714;2023-02-05T05:07:14;-16261.94;;;-139.71;73.46
3598;BME280;1813;52.016;8.714;2023-02-05T05:09:49;-16261.94;;;-139.71;73.70
3598;BME280;1813;52.016;8.714;2023-02-05T05:12:22;-16261.94;;;-139.71;74.07
3598;BME280;1813;52.016;8.714;2023-02-05T05:14:56;-16261.94;;;-139.71;74.18
3598;BME280;1813;52.016;8.714;2023-02-05T05:17:30;-16261.94;;;-139.71;74.74
3598;BME280;1813;52.016;8.714;2023-02-05T05:20:06;-16261.94;;;-139.71;74.75
3598;BME280;1813;52.016;8.714;2023-02-05T05:22:42;-16261.94;;;-139.71;74.81
3598;BME280;1813;52.016;8.714;2023-02-05T05:25:16;-16261.94;;;-139.71;75.04
3598;BME280;1813;52.016;8.714;2023-02-05T05:27:50;-16261.94;;;-139.71;75.35
3598;BME280;1813;52.016;8.714;2023-02-05T05:30:23;-16261.94;;;-139.71;75.42
3598;BME280;1813;52.016;8.714;2023-02-05T05:32:57;-16261.94;;;-139.71;75.57
3598;BME280;1813;52.016;8.714;2023-02-05T05:35:31;-16261.94;;;-139.71;75.81
3598;BME280;1813;52.016;8.714;2023-02-05T05:38:08;-16261.94;;;-139.71;76.08
3598;BME280;1813;52.016;8.714;2023-02-05T05:40:44;-16261.94;;;-139.71;76.08
3598;BME280;1813;52.016;8.714;2023-02-05T05:43:30;-16261.94;;;-139.71;76.52
3598;BME280;1813;52.016;8.714;2023-02-05T05:46:18;-16261.94;;;-139.71;76.90
3598;BME280;1813;52.016;8.714;2023-02-05T05:48:55;-16261.94;;;-139.71;77.52
3598;BME280;1813;52.016;8.714;2023-02-05T05:51:30;-16261.94;;;-139.71;78.06
3598;BME280;1813;52.016;8.714;2023-02-05T05:54:06;-16261.94;;;-139.71;78.35
3598;BME280;1813;52.016;8.714;2023-02-05T05:56:40;-16261.94;;;-139.71;78.51
3598;BME280;1813;52.016;8.714;2023-02-05T05:59:14;-16261.94;;;-139.71;78.58
3598;BME280;1813;52.016;8.714;2023-02-05T06:01:48;-16261.94;;;-139.71;78.66
3598;BME280;1813;52.016;8.714;2023-02-05T06:04:22;-16261.94;;;-139.71;78.68
3598;BME280;1813;52.016;8.714;2023-02-05T06:06:56;-16261.94;;;-139.71;78.61
3598;BME280;1813;52.016;8.714;2023-02-05T06:09:34;-16261.94;;;-139.71;78.34
3598;BME280;1813;52.016;8.714;2023-02-05T06:12:08;-16261.94;;;-139.71;78.19
3598;BME280;1813;52.016;8.714;2023-02-05T06:14:41;-16261.94;;;-139.71;78.25
3598;BME280;1813;52.016;8.714;2023-02-05T06:17:15;-16261.94;;;-139.71;78.33
3598;BME280;1813;52.016;8.714;2023-02-05T06:19:51;-16261.94;;;-139.71;78.59
3598;BME280;1813;52.016;8.714;2023-02-05T06:22:25;-16261.94;;;-139.71;78.63
3598;BME280;1813;52.016;8.714;2023-02-05T06:25:01;-16261.94;;;-139.71;78.62
3598;BME280;1813;52.016;8.714;2023-02-05T06:27:35;-16261.94;;;-139.71;78.81
3598;BME280;1813;52.016;8.714;2023-02-05T06:30:10;-16261.94;;;-139.71;79.01
3598;BME280;1813;52.016;8.714;2023-02-05T06:32:44;-16261.94;;;-139.71;79.07
3598;BME280;1813;52.016;8.714;2023-02-05T06:35:18;-16261.94;;;-139.71;79.10
3598;BME280;1813;52.016;8.714;2023-02-05T06:37:53;-16261.94;;;-139.71;79.06
3598;BME280;1813;52.016;8.714;2023-02-05T06:40:30;-16261.94;;;-139.71;79.16
3598;BME280;1813;52.016;8.714;2023-02-05T06:43:03;-16261.94;;;-139.71;79.31
3598;BME280;1813;52.016;8.714;2023-02-05T06:45:37;-16261.94;;;-139.71;79.47
3598;BME280;1813;52.016;8.714;2023-02-05T06:48:11;-16261.94;;;-139.71;79.74
3598;BME280;1813;52.016;8.714;2023-02-05T06:50:45;-16261.94;;;-139.71;79.95
3598;BME280;1813;52.016;8.714;2023-02-05T06:53:19;-16261.94;;;-139.71;80.20
3598;BME280;1813;52.016;8.714;2023-02-05T06:55:59;-16261.94;;;-139.71;80.18
3598;BME280;1813;52.016;8.714;2023-02-05T06:58:33;-16261.94;;;-139.71;80.46
3598;BME280;1813;52.016;8.714;2023-02-05T07:01:07;-16261.94;;;-139.71;80.43
3598;BME280;1813;52.016;8.714;2023-02-05T07:03:40;-16261.94;;;-139.71;80.45
3598;BME280;1813;52.016;8.714;2023-02-05T07:06:14;-16261.94;;;-139.71;80.63
3598;BME280;1813;52.016;8.714;2023-02-05T07:08:48;-16261.94;;;-139.71;80.84
3598;BME280;1813;52.016;8.714;2023-02-05T07:11:25;-16261.94;;;-139.71;80.80
3598;BME280;1813;52.016;8.714;2023-02-05T07:13:59;-16261.94;;;-139.71;81.05
3598;BME280;1813;52.016;8.714;2023-02-05T07:16:33;-16261.94;;;-139.71;81.17
3598;BME280;1813;52.016;8.714;2023-02-05T07:19:07;-16261.94;;;-139.71;81.13
3598;BME280;1813;52.016;8.714;2023-02-05T07:21:40;-16261.94;;;-139.71;81.31
3598;BME280;1813;52.016;8.714;2023-02-05T07:24:14;-16261.94;;;-139.71;81.39
3598;BME280;1813;52.016;8.714;2023-02-05T07:26:51;-16261.94;;;-139.71;81.33
3598;BME280;1813;52.016;8.714;2023-02-05T07:29:26;-16261.94;;;-139.71;81.42
3598;BME280;1813;52.016;8.714;2023-02-05T07:32:00;-16261.94;;;-139.71;81.29
3598;BME280;1813;52.016;8.714;2023-02-05T07:34:34;-16261.94;;;-139.71;81.22
3598;BME280;1813;52.016;8.714;2023-02-05T07:37:10;-16261.94;;;-139.71;81.10
3598;BME280;1813;52.016;8.714;2023-02-05T07:39:44;-16261.94;;;-139.71;81.19
3598;BME280;1813;52.016;8.714;2023-02-05T07:42:20;-16261.94;;;-139.71;81.44
3598;BME280;1813;52.016;8.714;2023-02-05T07:45:00;-16261.94;;;-139.71;81.54
3598;BME280;1813;52.016;8.714;2023-02-05T07:47:34;-16261.94;;;-139.71;81.67
3598;BME280;1813;52.016;8.714;2023-02-05T07:50:08;-16261.94;;;-139.71;81.82
3598;BME280;1813;52.016;8.714;2023-02-05T07:52:42;-16261.94;;;-139.71;81.92
3598;BME280;1813;52.016;8.714;2023-02-05T07:55:16;-16261.94;;;-139.71;81.90
3598;BME280;1813;52.016;8.714;2023-02-05T07:57:52;-16261.94;;;-139.71;81.72
3598;BME280;1813;52.016;8.714;2023-02-05T08:00:28;-16261.94;;;-139.71;81.63
3598;BME280;1813;52.016;8.714;2023-02-05T08:03:03;-16261.94;;;-139.71;81.62
3598;BME280;1813;52.016;8.714;2023-02-05T08:05:38;-16261.94;;;-139.71;81.94
3598;BME280;1813;52.016;8.714;2023-02-05T08:08:12;-16261.94;;;-139.71;81.86
3598;BME280;1813;52.016;8.714;2023-02-05T08:10:46;-16261.94;;;-139.71;82.00
3598;BME280;1813;52.016;8.714;2023-02-05T08:13:22;-16261.94;;;-139.71;82.27
3598;BME280;1813;52.016;8.714;2023-02-05T08:15:56;-16261.94;;;-139.71;82.25
3598;BME280;1813;52.016;8.714;2023-02-05T08:18:30;-16261.94;;;-139.71;82.29
3598;BME280;1813;52.016;8.714;2023-02-05T08:21:04;-16261.94;;;-139.71;82.54
3598;BME280;1813;52.016;8.714;2023-02-05T08:23:38;-16261.94;;;-139.71;82.70
3598;BME280;1813;52.016;8.714;2023-02-05T08:26:12;-16261.94;;;-139.71;82.59
3598;BME280;1813;52.016;8.714;2023-02-05T08:28:49;-16261.94;;;-139.71;82.79
3598;BME280;1813;52.016;8.714;2023-02-05T08:31:23;-16261.94;;;-139.71;82.96
3598;BME280;1813;52.016;8.714;2023-02-05T08:33:59;-16261.94;;;-139.71;83.05
3598;BME280;1813;52.016;8.714;2023-02-05T08:36:33;-16261.94;;;-139.71;83.07
3598;BME280;1813;52.016;8.714;2023-02-05T08:39:07;-16261.94;;;-139.71;83.32
3598;BME280;1813;52.016;8.714;2023-02-05T08:41:41;-16261.94;;;-139.71;83.26
3598;BME280;1813;52.016;8.714;2023-02-05T08:44:18;-16261.94;;;-139.71;83.34
3598;BME280;1813;52.016;8.714;2023-02-05T08:46:52;-16261.94;;;-139.71;83.42
3598;BME280;1813;52.016;8.714;2023-02-05T08:49:26;-16261.94;;;-139.71;83.71
3598;BME280;1813;52.016;8.714;2023-02-05T08:52:00;-16261.94;;;-139.71;83.76
3598;BME280;1813;52.016;8.714;2023-02-05T08:54:33;-16261.94;;;-139.71;83.74
3598;BME280;1813;52.016;8.714;2023-02-05T08:57:07;-16261.94;;;-139.71;83.87
3598;BME280;1813;52.016;8.714;2023-02-05T08:59:44;-16261.94;;;-139.71;84.06
3598;BME280;1813;52.016;8.714;2023-02-05T09:02:18;-16261.94;;;-139.71;84.05
3598;BME280;1813;52.016;8.714;2023-02-05T09:04:51;-16261.94;;;-139.71;83.99
3598;BME280;1813;52.016;8.714;2023-02-05T09:07:25;-16261.94;;;-139.71;84.04
3598;BME280;1813;52.016;8.714;2023-02-05T09:09:59;-16261.94;;;-139.71;84.25
3598;BME280;1813;52.016;8.714;2023-02-05T09:12:33;-16261.94;;;-139.71;84.20
3598;BME280;1813;52.016;8.714;2023-02-05T09:15:10;-16261.94;;;-139.71;84.17
3598;BME280;1813;52.016;8.714;2023-02-05T09:17:44;-16261.94;;;-139.71;84.12
3598;BME280;1813;52.016;8.714;2023-02-05T09:20:18;-16261.94;;;-139.71;84.19
3598;BME280;1813;52.016;8.714;2023-02-05T09:22:52;-16261.94;;;-139.71;84.27
3598;BME280;1813;52.016;8.714;2023-02-05T09:25:26;-16261.94;;;-139.71;84.12
3598;BME280;1813;52.016;8.714;2023-02-05T09:28:03;-16261.94;;;-139.71;84.25
3598;BME280;1813;52.016;8.714;2023-02-05T09:30:46;-16261.94;;;-139.71;84.25
3598;BME280;1813;52.016;8.714;2023-02-05T09:33:22;-16261.94;;;-139.71;84.26
3598;BME280;1813;52.016;8.714;2023-02-05T09:35:56;-16261.94;;;-139.71;84.32
3598;BME280;1813;52.016;8.714;2023-02-05T09:38:29;-16261.94;;;-139.71;84.38
3598;BME280;1813;52.016;8.714;2023-02-05T09:41:07;-16261.94;;;-139.71;84.27
3598;BME280;1813;52.016;8.714;2023-02-05T09:43:49;-16261.94;;;-139.71;84.31
3598;BME280;1813;52.016;8.714;2023-02-05T09:46:35;-16261.94;;;-139.71;84.44
3598;BME280;1813;52.016;8.714;2023-02-05T09:49:16;-16261.94;;;-139.71;84.53
3598;BME280;1813;52.016;8.714;2023-02-05T09:51:52;-16261.94;;;-139.71;84.61
3598;BME280;1813;52.016;8.714;2023-02-05T09:54:32;-16261.94;;;-139.71;84.52
3598;BME280;1813;52.016;8.714;2023-02-05T09:57:11;-16261.94;;;-139.71;84.57
3598;BME280;1813;52.016;8.714;2023-02-05T09:59:46;-16261.94;;;-139.71;84.70
3598;BME280;1813;52.016;8.714;2023-02-05T10:02:27;-16261.94;;;-139.71;84.72
3598;BME280;1813;52.016;8.714;2023-02-05T10:05:11;-16261.94;;;-139.71;84.81
3598;BME280;1813;52.016;8.714;2023-02-05T10:07:53;-16261.94;;;-139.71;85.00
3598;BME280;1813;52.016;8.714;2023-02-05T10:10:31;-16261.94;;;-139.71;85.13
3598;BME280;1813;52.016;8.714;2023-02-05T10:13:26;-16261.94;;;-139.71;85.18
3598;BME280;1813;52.016;8.714;2023-02-05T10:16:31;-16261.94;;;-139.71;85.34
3598;BME280;1813;52.016;8.714;2023-02-05T10:19:19;-16261.94;;;-139.71;85.34
3598;BME280;1813;52.016;8.714;2023-02-05T10:22:06;-16261.94;;;-139.71;85.28
3598;BME280;1813;52.016;8.714;2023-02-05T10:27:53;-16261.94;;;-139.71;85.36
3598;BME280;1813;52.016;8.714;2023-02-05T10:30:32;-16261.94;;;-139.71;85.46
3598;BME280;1813;52.016;8.714;2023-02-05T10:33:16;-16261.94;;;-139.71;85.24
3598;BME280;1813;52.016;8.714;2023-02-05T10:35:57;-16261.94;;;-139.71;84.98
3598;BME280;1813;52.016;8.714;2023-02-05T10:38:36;-16261.94;;;-139.71;84.92
3598;BME280;1813;52.016;8.714;2023-02-05T10:41:16;-16261.94;;;-139.71;84.84
3598;BME280;1813;52.016;8.714;2023-02-05T10:43:59;-16261.94;;;-139.71;84.82
3598;BME280;1813;52.016;8.714;2023-02-05T10:46:34;-16261.94;;;-139.71;84.79
3598;BME280;1813;52.016;8.714;2023-02-05T10:49:12;-16261.94;;;-139.71;84.82
3598;BME280;1813;52.016;8.714;2023-02-05T10:51:51;-16261.94;;;-139.71;85.12
3598;BME280;1813;52.016;8.714;2023-02-05T10:54:27;-16261.94;;;-139.71;85.34
3598;BME280;1813;52.016;8.714;2023-02-05T10:57:01;-16261.94;;;-139.71;85.57
3598;BME280;1813;52.016;8.714;2023-02-05T10:59:40;-16261.94;;;-139.71;85.83
3598;BME280;1813;52.016;8.714;2023-02-05T11:02:17;-16261.94;;;-139.71;85.94
3598;BME280;1813;52.016;8.714;2023-02-05T11:04:55;-16261.94;;;-139.71;85.77
3598;BME280;1813;52.016;8.714;2023-02-05T11:07:39;-16261.94;;;-139.71;86.04
3598;BME280;1813;52.016;8.714;2023-02-05T11:10:17;-16261.94;;;-139.71;86.14
3598;BME280;1813;52.016;8.714;2023-02-05T11:12:53;-16261.94;;;-139.71;86.04
3598;BME280;1813;52.016;8.714;2023-02-05T11:15:28;-16261.94;;;-139.71;85.91
3598;BME280;1813;52.016;8.714;2023-02-05T11:18:05;-16261.94;;;-139.71;85.74
3598;BME280;1813;52.016;8.714;2023-02-05T11:20:39;-16261.94;;;-139.71;85.71
3598;BME280;1813;52.016;8.714;2023-02-05T11:23:20;-16261.94;;;-139.71;85.42
3598;BME280;1813;52.016;8.714;2023-02-05T11:25:56;-16261.94;;;-139.71;85.38
3598;BME280;1813;52.016;8.714;2023-02-05T11:28:32;-16261.94;;;-139.71;85.17
3598;BME280;1813;52.016;8.714;2023-02-05T11:31:20;-16261.94;;;-139.71;85.02
3598;BME280;1813;52.016;8.714;2023-02-05T11:34:09;-16261.94;;;-139.71;84.66
3598;BME280;1813;52.016;8.714;2023-02-05T11:36:49;-16261.94;;;-139.71;84.85
3598;BME280;1813;52.016;8.714;2023-02-05T11:39:31;-16261.94;;;-139.71;84.64
3598;BME280;1813;52.016;8.714;2023-02-05T11:42:08;-16261.94;;;-139.71;84.56
3598;BME280;1813;52.016;8.714;2023-02-05T11:44:50;-16261.94;;;-139.71;84.50
3598;BME280;1813;52.016;8.714;2023-02-05T11:47:27;-16261.94;;;-139.71;84.51
3598;BME280;1813;52.016;8.714;2023-02-05T11:50:03;-16261.94;;;-139.71;84.40
3598;BME280;1813;52.016;8.714;2023-02-05T11:52:39;-16261.94;;;-139.71;84.32
3598;BME280;1813;52.016;8.714;2023-02-05T11:55:26;-16261.94;;;-139.71;84.22
3598;BME280;1813;52.016;8.714;2023-02-05T11:58:04;-16261.94;;;-139.71;84.21
3598;BME280;1813;52.016;8.714;2023-02-05T12:00:49;-16261.94;;;-139.71;83.88
3598;BME280;1813;52.016;8.714;2023-02-05T12:03:24;-16261.94;;;-139.71;83.83
3598;BME280;1813;52.016;8.714;2023-02-05T12:06:10;-16261.94;;;-139.71;83.95
3598;BME280;1813;52.016;8.714;2023-02-05T12:08:51;-16261.94;;;-139.71;83.98
3598;BME280;1813;52.016;8.714;2023-02-05T12:11:40;-16261.94;;;-139.71;84.21
3598;BME280;1813;52.016;8.714;2023-02-05T12:14:37;-16261.94;;;-139.71;84.60
3598;BME280;1813;52.016;8.714;2023-02-05T12:17:32;-16261.94;;;-139.71;84.72
3598;BME280;1813;52.016;8.714;2023-02-05T12:20:19;-16261.94;;;-139.71;84.75
3598;BME280;1813;52.016;8.714;2023-02-05T12:26:13;-16261.94;;;-139.71;84.75
3598;BME280;1813;52.016;8.714;2023-02-05T12:29:13;-16261.94;;;-139.71;84.42
3598;BME280;1813;52.016;8.714;2023-02-05T12:32:08;-16261.94;;;-139.71;84.46
3598;BME280;1813;52.016;8.714;2023-02-05T12:35:07;-16261.94;;;-139.71;84.37
3598;BME280;1813;52.016;8.714;2023-02-05T12:37:51;-16261.94;;;-139.71;84.17
3598;BME280;1813;52.016;8.714;2023-02-05T12:40:40;-16261.94;;;-139.71;84.06
3598;BME280;1813;52.016;8.714;2023-02-05T12:43:35;-16261.94;;;-139.71;84.20
3598;BME280;1813;52.016;8.714;2023-02-05T12:46:38;-16261.94;;;-139.71;84.33
3598;BME280;1813;52.016;8.714;2023-02-05T12:49:29;-16261.94;;;-139.71;84.12
3598;BME280;1813;52.016;8.714;2023-02-05T12:52:19;-16261.94;;;-139.71;84.00
3598;BME280;1813;52.016;8.714;2023-02-05T12:55:16;-16261.94;;;-139.71;83.97
3598;BME280;1813;52.016;8.714;2023-02-05T12:57:56;-16261.94;;;-139.71;83.97
3598;BME280;1813;52.016;8.714;2023-02-05T13:00:34;-16261.94;;;-139.71;83.91
3598;BME280;1813;52.016;8.714;2023-02-05T13:03:17;-16261.94;;;-139.71;83.92
3598;BME280;1813;52.016;8.714;2023-02-05T13:05:58;-16261.94;;;-139.71;83.97
3598;BME280;1813;52.016;8.714;2023-02-05T13:08:38;-16261.94;;;-139.71;84.11
3598;BME280;1813;52.016;8.714;2023-02-05T13:11:17;-16261.94;;;-139.71;84.09
3598;BME280;1813;52.016;8.714;2023-02-05T13:13:59;-16261.94;;;-139.71;84.07
3598;BME280;1813;52.016;8.714;2023-02-05T13:16:37;-16261.94;;;-139.71;84.34
3598;BME280;1813;52.016;8.714;2023-02-05T13:19:22;-16261.94;;;-139.71;84.23
3598;BME280;1813;52.016;8.714;2023-02-05T13:22:01;-16261.94;;;-139.71;84.17
3598;BME280;1813;52.016;8.714;2023-02-05T13:24:51;-16261.94;;;-139.71;84.22
3598;BME280;1813;52.016;8.714;2023-02-05T13:27:41;-16261.94;;;-139.71;84.09
3598;BME280;1813;52.016;8.714;2023-02-05T13:30:31;-16261.94;;;-139.71;84.14
3598;BME280;1813;52.016;8.714;2023-02-05T13:33:07;-16261.94;;;-139.71;84.29
3598;BME280;1813;52.016;8.714;2023-02-05T13:35:52;-16261.94;;;-139.71;84.34
3598;BME280;1813;52.016;8.714;2023-02-05T13:38:43;-16261.94;;;-139.71;84.26
3598;BME280;1813;52.016;8.714;2023-02-05T13:41:55;-16261.94;;;-139.71;84.27
3598;BME280;1813;52.016;8.714;2023-02-05T13:44:49;-16261.94;;;-139.71;84.28
3598;BME280;1813;52.016;8.714;2023-02-05T13:47:41;-16261.94;;;-139.71;84.38
3598;BME280;1813;52.016;8.714;2023-02-05T13:50:36;-16261.94;;;-139.71;84.31
3598;BME280;1813;52.016;8.714;2023-02-05T13:53:43;-16261.94;;;-139.71;84.56
3598;BME280;1813;52.016;8.714;2023-02-05T13:56:29;-16261.94;;;-139.71;84.53